<?xml version="1.0" encoding="UTF-8" standalone="no" ?>
<gpx xmlns="http://www.topografix.com/GPX/1/1" creator="MapSource 6.11.6" version="1.1" xmlns:xsi="http://www.w3.org/2001/XMLSchema-instance" xsi:schemaLocation="http://www.topografix.com/GPX/1/1 http://www.topografix.com/GPX/1/1/gpx.xsd">

  <metadata>
    <link href="http://www.garmin.com">
      <text>Garmin International</text>
    </link>
    <time>2009-06-02T19:49:55Z</time>
    <bounds maxlat="50.664224" maxlon="6.409607" minlat="50.651852" minlon="6.396813"/>
  </metadata>

  <trk>
    <name>Trimmpfad</name>
    <extensions>
      <gpxx:TrackExtension xmlns:gpxx="http://www.garmin.com/xmlschemas/GpxExtensions/v3" xmlns:xsi="http://www.w3.org/2001/XMLSchema-instance" xsi:schemaLocation="http://www.garmin.com/xmlschemas/GpxExtensions/v3 http://www.garmin.com/xmlschemas/GpxExtensions/v3/GpxExtensionsv3.xsd">
        <gpxx:DisplayColor>White</gpxx:DisplayColor>
      </gpxx:TrackExtension>
    </extensions>
    <trkseg>
      <trkpt lat="50.661574" lon="6.408372"/>
      <trkpt lat="50.661630" lon="6.408273"/>
      <trkpt lat="50.661681" lon="6.408183"/>
      <trkpt lat="50.661775" lon="6.408054"/>
      <trkpt lat="50.661876" lon="6.407896"/>
      <trkpt lat="50.661945" lon="6.407796"/>
      <trkpt lat="50.661976" lon="6.407737"/>
      <trkpt lat="50.661970" lon="6.407687"/>
      <trkpt lat="50.661964" lon="6.407529"/>
      <trkpt lat="50.661570" lon="6.408366">
        <ele>452.440000</ele>
        <time>2009-06-01T07:55:35Z</time>
      </trkpt>
      <trkpt lat="50.661413" lon="6.408518">
        <ele>451.960000</ele>
        <time>2009-06-01T07:55:51Z</time>
      </trkpt>
      <trkpt lat="50.661281" lon="6.408697">
        <ele>451.480000</ele>
        <time>2009-06-01T07:56:03Z</time>
      </trkpt>
      <trkpt lat="50.661121" lon="6.408537">
        <ele>451.960000</ele>
        <time>2009-06-01T07:56:16Z</time>
      </trkpt>
      <trkpt lat="50.661006" lon="6.408280">
        <ele>452.920000</ele>
        <time>2009-06-01T07:56:30Z</time>
      </trkpt>
      <trkpt lat="50.660918" lon="6.408168">
        <ele>453.400000</ele>
        <time>2009-06-01T07:56:38Z</time>
      </trkpt>
      <trkpt lat="50.660741" lon="6.408293">
        <ele>453.400000</ele>
        <time>2009-06-01T07:56:52Z</time>
      </trkpt>
      <trkpt lat="50.660544" lon="6.408391">
        <ele>453.400000</ele>
        <time>2009-06-01T07:57:07Z</time>
      </trkpt>
      <trkpt lat="50.660353" lon="6.408525">
        <ele>453.400000</ele>
        <time>2009-06-01T07:57:22Z</time>
      </trkpt>
      <trkpt lat="50.660158" lon="6.408721">
        <ele>453.880000</ele>
        <time>2009-06-01T07:57:38Z</time>
      </trkpt>
      <trkpt lat="50.660075" lon="6.408935">
        <ele>453.400000</ele>
        <time>2009-06-01T07:57:48Z</time>
      </trkpt>
      <trkpt lat="50.659957" lon="6.408928">
        <ele>453.880000</ele>
        <time>2009-06-01T07:57:59Z</time>
      </trkpt>
      <trkpt lat="50.659723" lon="6.408954">
        <ele>453.880000</ele>
        <time>2009-06-01T07:58:13Z</time>
      </trkpt>
      <trkpt lat="50.659567" lon="6.409043">
        <ele>453.880000</ele>
        <time>2009-06-01T07:58:28Z</time>
      </trkpt>
      <trkpt lat="50.659514" lon="6.409026">
        <ele>454.360000</ele>
        <time>2009-06-01T07:58:33Z</time>
      </trkpt>
      <trkpt lat="50.659260" lon="6.409008">
        <ele>454.840000</ele>
        <time>2009-06-01T07:58:48Z</time>
      </trkpt>
      <trkpt lat="50.659252" lon="6.408994">
        <ele>454.840000</ele>
        <time>2009-06-01T07:58:49Z</time>
      </trkpt>
      <trkpt lat="50.659028" lon="6.409032">
        <ele>454.360000</ele>
        <time>2009-06-01T07:59:06Z</time>
      </trkpt>
      <trkpt lat="50.658950" lon="6.409131">
        <ele>453.880000</ele>
        <time>2009-06-01T07:59:12Z</time>
      </trkpt>
      <trkpt lat="50.658951" lon="6.409374">
        <ele>453.400000</ele>
        <time>2009-06-01T07:59:20Z</time>
      </trkpt>
      <trkpt lat="50.658976" lon="6.409465">
        <ele>453.400000</ele>
        <time>2009-06-01T07:59:24Z</time>
      </trkpt>
      <trkpt lat="50.658921" lon="6.409515">
        <ele>453.400000</ele>
        <time>2009-06-01T07:59:29Z</time>
      </trkpt>
      <trkpt lat="50.658857" lon="6.409526">
        <ele>452.920000</ele>
        <time>2009-06-01T07:59:33Z</time>
      </trkpt>
      <trkpt lat="50.658799" lon="6.409489">
        <ele>453.400000</ele>
        <time>2009-06-01T07:59:37Z</time>
      </trkpt>
      <trkpt lat="50.658645" lon="6.409377">
        <ele>454.840000</ele>
        <time>2009-06-01T07:59:51Z</time>
      </trkpt>
      <trkpt lat="50.658618" lon="6.409360">
        <ele>454.840000</ele>
        <time>2009-06-01T07:59:53Z</time>
      </trkpt>
      <trkpt lat="50.658534" lon="6.409371">
        <ele>455.320000</ele>
        <time>2009-06-01T07:59:57Z</time>
      </trkpt>
      <trkpt lat="50.658491" lon="6.409308">
        <ele>455.320000</ele>
        <time>2009-06-01T08:00:01Z</time>
      </trkpt>
      <trkpt lat="50.658307" lon="6.409109">
        <ele>456.280000</ele>
        <time>2009-06-01T08:00:18Z</time>
      </trkpt>
      <trkpt lat="50.658170" lon="6.409005">
        <ele>456.280000</ele>
        <time>2009-06-01T08:00:30Z</time>
      </trkpt>
      <trkpt lat="50.658080" lon="6.409299">
        <ele>455.800000</ele>
        <time>2009-06-01T08:00:44Z</time>
      </trkpt>
      <trkpt lat="50.658000" lon="6.409494">
        <ele>455.800000</ele>
        <time>2009-06-01T08:00:54Z</time>
      </trkpt>
      <trkpt lat="50.657909" lon="6.409607">
        <ele>455.320000</ele>
        <time>2009-06-01T08:01:09Z</time>
      </trkpt>
      <trkpt lat="50.657864" lon="6.409601">
        <ele>455.800000</ele>
        <time>2009-06-01T08:01:13Z</time>
      </trkpt>
      <trkpt lat="50.657665" lon="6.409576">
        <ele>455.800000</ele>
        <time>2009-06-01T08:01:27Z</time>
      </trkpt>
      <trkpt lat="50.657494" lon="6.409446">
        <ele>456.280000</ele>
        <time>2009-06-01T08:01:39Z</time>
      </trkpt>
      <trkpt lat="50.657406" lon="6.409429">
        <ele>456.280000</ele>
        <time>2009-06-01T08:01:45Z</time>
      </trkpt>
      <trkpt lat="50.657326" lon="6.409348">
        <ele>456.280000</ele>
        <time>2009-06-01T08:01:53Z</time>
      </trkpt>
      <trkpt lat="50.657206" lon="6.409208">
        <ele>456.760000</ele>
        <time>2009-06-01T08:02:06Z</time>
      </trkpt>
      <trkpt lat="50.657085" lon="6.409204">
        <ele>456.760000</ele>
        <time>2009-06-01T08:02:14Z</time>
      </trkpt>
      <trkpt lat="50.657007" lon="6.409244">
        <ele>456.760000</ele>
        <time>2009-06-01T08:02:19Z</time>
      </trkpt>
      <trkpt lat="50.656903" lon="6.409295">
        <ele>456.760000</ele>
        <time>2009-06-01T08:02:25Z</time>
      </trkpt>
      <trkpt lat="50.656839" lon="6.409233">
        <ele>457.240000</ele>
        <time>2009-06-01T08:02:31Z</time>
      </trkpt>
      <trkpt lat="50.656796" lon="6.408881">
        <ele>457.240000</ele>
        <time>2009-06-01T08:02:49Z</time>
      </trkpt>
      <trkpt lat="50.656762" lon="6.408585">
        <ele>457.720000</ele>
        <time>2009-06-01T08:03:04Z</time>
      </trkpt>
      <trkpt lat="50.656730" lon="6.408407">
        <ele>458.210000</ele>
        <time>2009-06-01T08:03:10Z</time>
      </trkpt>
      <trkpt lat="50.656679" lon="6.408302">
        <ele>458.210000</ele>
        <time>2009-06-01T08:03:17Z</time>
      </trkpt>
      <trkpt lat="50.656594" lon="6.408003">
        <ele>458.690000</ele>
        <time>2009-06-01T08:03:31Z</time>
      </trkpt>
      <trkpt lat="50.656588" lon="6.407667">
        <ele>458.210000</ele>
        <time>2009-06-01T08:03:45Z</time>
      </trkpt>
      <trkpt lat="50.656565" lon="6.407331">
        <ele>458.210000</ele>
        <time>2009-06-01T08:04:01Z</time>
      </trkpt>
      <trkpt lat="50.656532" lon="6.407118">
        <ele>458.210000</ele>
        <time>2009-06-01T08:04:13Z</time>
      </trkpt>
      <trkpt lat="50.656345" lon="6.406978">
        <ele>457.240000</ele>
        <time>2009-06-01T08:04:31Z</time>
      </trkpt>
      <trkpt lat="50.656143" lon="6.406925">
        <ele>456.280000</ele>
        <time>2009-06-01T08:04:46Z</time>
      </trkpt>
      <trkpt lat="50.656050" lon="6.406837">
        <ele>455.800000</ele>
        <time>2009-06-01T08:04:54Z</time>
      </trkpt>
      <trkpt lat="50.656084" lon="6.406547">
        <ele>454.840000</ele>
        <time>2009-06-01T08:05:08Z</time>
      </trkpt>
      <trkpt lat="50.656139" lon="6.406442">
        <ele>453.880000</ele>
        <time>2009-06-01T08:05:14Z</time>
      </trkpt>
      <trkpt lat="50.656269" lon="6.406117">
        <ele>451.000000</ele>
        <time>2009-06-01T08:05:33Z</time>
      </trkpt>
      <trkpt lat="50.656350" lon="6.405807">
        <ele>449.070000</ele>
        <time>2009-06-01T08:05:48Z</time>
      </trkpt>
      <trkpt lat="50.656420" lon="6.405476">
        <ele>447.150000</ele>
        <time>2009-06-01T08:06:03Z</time>
      </trkpt>
      <trkpt lat="50.656425" lon="6.405235">
        <ele>445.230000</ele>
        <time>2009-06-01T08:06:15Z</time>
      </trkpt>
      <trkpt lat="50.656374" lon="6.404941">
        <ele>443.310000</ele>
        <time>2009-06-01T08:06:31Z</time>
      </trkpt>
      <trkpt lat="50.656330" lon="6.404612">
        <ele>441.380000</ele>
        <time>2009-06-01T08:06:46Z</time>
      </trkpt>
      <trkpt lat="50.656294" lon="6.404479">
        <ele>440.900000</ele>
        <time>2009-06-01T08:06:52Z</time>
      </trkpt>
      <trkpt lat="50.656213" lon="6.404126">
        <ele>438.500000</ele>
        <time>2009-06-01T08:07:09Z</time>
      </trkpt>
      <trkpt lat="50.656157" lon="6.403868">
        <ele>436.100000</ele>
        <time>2009-06-01T08:07:23Z</time>
      </trkpt>
      <trkpt lat="50.656004" lon="6.403568">
        <ele>434.170000</ele>
        <time>2009-06-01T08:07:40Z</time>
      </trkpt>
      <trkpt lat="50.655935" lon="6.403478">
        <ele>433.690000</ele>
        <time>2009-06-01T08:07:47Z</time>
      </trkpt>
      <trkpt lat="50.655874" lon="6.403251">
        <ele>432.250000</ele>
        <time>2009-06-01T08:07:59Z</time>
      </trkpt>
      <trkpt lat="50.655791" lon="6.402934">
        <ele>429.850000</ele>
        <time>2009-06-01T08:08:15Z</time>
      </trkpt>
      <trkpt lat="50.655879" lon="6.402676">
        <ele>428.890000</ele>
        <time>2009-06-01T08:08:28Z</time>
      </trkpt>
      <trkpt lat="50.655888" lon="6.402675">
        <ele>428.890000</ele>
        <time>2009-06-01T08:08:29Z</time>
      </trkpt>
      <trkpt lat="50.655955" lon="6.402615">
        <ele>427.920000</ele>
        <time>2009-06-01T08:08:35Z</time>
      </trkpt>
      <trkpt lat="50.656070" lon="6.402444">
        <ele>427.440000</ele>
        <time>2009-06-01T08:08:48Z</time>
      </trkpt>
      <trkpt lat="50.656068" lon="6.402397">
        <ele>426.960000</ele>
        <time>2009-06-01T08:08:54Z</time>
      </trkpt>
      <trkpt lat="50.656030" lon="6.402300">
        <ele>426.480000</ele>
        <time>2009-06-01T08:09:14Z</time>
      </trkpt>
      <trkpt lat="50.655966" lon="6.402081">
        <ele>425.040000</ele>
        <time>2009-06-01T08:09:34Z</time>
      </trkpt>
      <trkpt lat="50.655930" lon="6.402187">
        <ele>426.000000</ele>
        <time>2009-06-01T08:10:23Z</time>
      </trkpt>
      <trkpt lat="50.655947" lon="6.402264">
        <ele>426.480000</ele>
        <time>2009-06-01T08:11:23Z</time>
      </trkpt>
      <trkpt lat="50.655927" lon="6.402070">
        <ele>426.960000</ele>
        <time>2009-06-01T08:15:22Z</time>
      </trkpt>
      <trkpt lat="50.655838" lon="6.401733">
        <ele>425.040000</ele>
        <time>2009-06-01T08:15:42Z</time>
      </trkpt>
      <trkpt lat="50.655772" lon="6.401621">
        <ele>424.080000</ele>
        <time>2009-06-01T08:15:49Z</time>
      </trkpt>
      <trkpt lat="50.655571" lon="6.401547">
        <ele>423.120000</ele>
        <time>2009-06-01T08:15:59Z</time>
      </trkpt>
      <trkpt lat="50.655486" lon="6.401495">
        <ele>422.160000</ele>
        <time>2009-06-01T08:16:05Z</time>
      </trkpt>
      <trkpt lat="50.655363" lon="6.401545">
        <ele>421.190000</ele>
        <time>2009-06-01T08:16:11Z</time>
      </trkpt>
      <trkpt lat="50.655213" lon="6.401529">
        <ele>419.750000</ele>
        <time>2009-06-01T08:16:20Z</time>
      </trkpt>
      <trkpt lat="50.655027" lon="6.401605">
        <ele>417.830000</ele>
        <time>2009-06-01T08:16:33Z</time>
      </trkpt>
      <trkpt lat="50.654975" lon="6.401616">
        <ele>417.350000</ele>
        <time>2009-06-01T08:16:36Z</time>
      </trkpt>
      <trkpt lat="50.654915" lon="6.401644">
        <ele>416.390000</ele>
        <time>2009-06-01T08:16:42Z</time>
      </trkpt>
      <trkpt lat="50.654809" lon="6.401705">
        <ele>414.950000</ele>
        <time>2009-06-01T08:16:51Z</time>
      </trkpt>
      <trkpt lat="50.654595" lon="6.401744">
        <ele>413.020000</ele>
        <time>2009-06-01T08:17:04Z</time>
      </trkpt>
      <trkpt lat="50.654565" lon="6.401743">
        <ele>412.540000</ele>
        <time>2009-06-01T08:17:07Z</time>
      </trkpt>
      <trkpt lat="50.654481" lon="6.401646">
        <ele>411.580000</ele>
        <time>2009-06-01T08:17:15Z</time>
      </trkpt>
      <trkpt lat="50.654449" lon="6.401631">
        <ele>411.100000</ele>
        <time>2009-06-01T08:17:18Z</time>
      </trkpt>
      <trkpt lat="50.654333" lon="6.401523">
        <ele>409.660000</ele>
        <time>2009-06-01T08:17:26Z</time>
      </trkpt>
      <trkpt lat="50.654088" lon="6.401434">
        <ele>407.740000</ele>
        <time>2009-06-01T08:17:40Z</time>
      </trkpt>
      <trkpt lat="50.653913" lon="6.401407">
        <ele>406.290000</ele>
        <time>2009-06-01T08:17:53Z</time>
      </trkpt>
      <trkpt lat="50.653694" lon="6.401315">
        <ele>403.890000</ele>
        <time>2009-06-01T08:18:11Z</time>
      </trkpt>
      <trkpt lat="50.653560" lon="6.401354">
        <ele>401.490000</ele>
        <time>2009-06-01T08:18:28Z</time>
      </trkpt>
      <trkpt lat="50.653391" lon="6.401354">
        <ele>401.010000</ele>
        <time>2009-06-01T08:18:35Z</time>
      </trkpt>
      <trkpt lat="50.653209" lon="6.401281">
        <ele>398.600000</ele>
        <time>2009-06-01T08:18:50Z</time>
      </trkpt>
      <trkpt lat="50.653158" lon="6.401350">
        <ele>398.120000</ele>
        <time>2009-06-01T08:18:54Z</time>
      </trkpt>
      <trkpt lat="50.652928" lon="6.401494">
        <ele>395.240000</ele>
        <time>2009-06-01T08:19:16Z</time>
      </trkpt>
      <trkpt lat="50.652783" lon="6.401564">
        <ele>393.800000</ele>
        <time>2009-06-01T08:19:28Z</time>
      </trkpt>
      <trkpt lat="50.652726" lon="6.401567">
        <ele>392.840000</ele>
        <time>2009-06-01T08:19:32Z</time>
      </trkpt>
      <trkpt lat="50.652526" lon="6.401516">
        <ele>389.950000</ele>
        <time>2009-06-01T08:19:49Z</time>
      </trkpt>
      <trkpt lat="50.652391" lon="6.401566">
        <ele>388.030000</ele>
        <time>2009-06-01T08:20:02Z</time>
      </trkpt>
      <trkpt lat="50.652328" lon="6.401337">
        <ele>388.510000</ele>
        <time>2009-06-01T08:20:19Z</time>
      </trkpt>
      <trkpt lat="50.652283" lon="6.401000">
        <ele>391.390000</ele>
        <time>2009-06-01T08:20:38Z</time>
      </trkpt>
      <trkpt lat="50.652181" lon="6.400750">
        <ele>394.760000</ele>
        <time>2009-06-01T08:20:52Z</time>
      </trkpt>
      <trkpt lat="50.652113" lon="6.400486">
        <ele>398.120000</ele>
        <time>2009-06-01T08:21:07Z</time>
      </trkpt>
      <trkpt lat="50.652141" lon="6.400297">
        <ele>401.490000</ele>
        <time>2009-06-01T08:21:24Z</time>
      </trkpt>
      <trkpt lat="50.652174" lon="6.400111">
        <ele>403.890000</ele>
        <time>2009-06-01T08:21:38Z</time>
      </trkpt>
      <trkpt lat="50.652074" lon="6.399863">
        <ele>407.260000</ele>
        <time>2009-06-01T08:21:54Z</time>
      </trkpt>
      <trkpt lat="50.652074" lon="6.399701">
        <ele>410.140000</ele>
        <time>2009-06-01T08:22:12Z</time>
      </trkpt>
      <trkpt lat="50.652060" lon="6.399385">
        <ele>413.020000</ele>
        <time>2009-06-01T08:22:33Z</time>
      </trkpt>
      <trkpt lat="50.651943" lon="6.399191">
        <ele>415.910000</ele>
        <time>2009-06-01T08:22:49Z</time>
      </trkpt>
      <trkpt lat="50.651852" lon="6.398854">
        <ele>419.270000</ele>
        <time>2009-06-01T08:23:09Z</time>
      </trkpt>
      <trkpt lat="50.651860" lon="6.398489">
        <ele>420.710000</ele>
        <time>2009-06-01T08:23:32Z</time>
      </trkpt>
      <trkpt lat="50.651861" lon="6.398200">
        <ele>422.160000</ele>
        <time>2009-06-01T08:23:53Z</time>
      </trkpt>
      <trkpt lat="50.651908" lon="6.397903">
        <ele>425.040000</ele>
        <time>2009-06-01T08:24:11Z</time>
      </trkpt>
      <trkpt lat="50.652043" lon="6.397648">
        <ele>428.400000</ele>
        <time>2009-06-01T08:24:27Z</time>
      </trkpt>
      <trkpt lat="50.652145" lon="6.397502">
        <ele>431.290000</ele>
        <time>2009-06-01T08:24:41Z</time>
      </trkpt>
      <trkpt lat="50.652104" lon="6.397383">
        <ele>432.730000</ele>
        <time>2009-06-01T08:25:02Z</time>
      </trkpt>
      <trkpt lat="50.652120" lon="6.397330">
        <ele>433.210000</ele>
        <time>2009-06-01T08:25:05Z</time>
      </trkpt>
      <trkpt lat="50.652122" lon="6.397083">
        <ele>436.100000</ele>
        <time>2009-06-01T08:25:23Z</time>
      </trkpt>
      <trkpt lat="50.652274" lon="6.396813">
        <ele>436.580000</ele>
        <time>2009-06-01T08:25:45Z</time>
      </trkpt>
      <trkpt lat="50.652376" lon="6.396915">
        <ele>438.020000</ele>
        <time>2009-06-01T08:26:18Z</time>
      </trkpt>
      <trkpt lat="50.652562" lon="6.397191">
        <ele>439.940000</ele>
        <time>2009-06-01T08:26:41Z</time>
      </trkpt>
      <trkpt lat="50.652630" lon="6.397278">
        <ele>443.310000</ele>
        <time>2009-06-01T08:27:07Z</time>
      </trkpt>
      <trkpt lat="50.652653" lon="6.397330">
        <ele>444.270000</ele>
        <time>2009-06-01T08:27:52Z</time>
      </trkpt>
      <trkpt lat="50.653030" lon="6.397788">
        <ele>445.710000</ele>
        <time>2009-06-01T08:28:55Z</time>
      </trkpt>
      <trkpt lat="50.653132" lon="6.397892">
        <ele>447.150000</ele>
        <time>2009-06-01T08:29:05Z</time>
      </trkpt>
      <trkpt lat="50.653360" lon="6.398245">
        <ele>449.550000</ele>
        <time>2009-06-01T08:29:27Z</time>
      </trkpt>
      <trkpt lat="50.653545" lon="6.398416">
        <ele>450.030000</ele>
        <time>2009-06-01T08:29:41Z</time>
      </trkpt>
      <trkpt lat="50.653695" lon="6.398623">
        <ele>451.960000</ele>
        <time>2009-06-01T08:30:01Z</time>
      </trkpt>
      <trkpt lat="50.653818" lon="6.398890">
        <ele>453.400000</ele>
        <time>2009-06-01T08:30:16Z</time>
      </trkpt>
      <trkpt lat="50.653934" lon="6.399037">
        <ele>454.840000</ele>
        <time>2009-06-01T08:30:26Z</time>
      </trkpt>
      <trkpt lat="50.654053" lon="6.399225">
        <ele>456.760000</ele>
        <time>2009-06-01T08:30:44Z</time>
      </trkpt>
      <trkpt lat="50.654185" lon="6.399357">
        <ele>458.210000</ele>
        <time>2009-06-01T08:31:03Z</time>
      </trkpt>
      <trkpt lat="50.654358" lon="6.399319">
        <ele>459.650000</ele>
        <time>2009-06-01T08:31:19Z</time>
      </trkpt>
      <trkpt lat="50.654509" lon="6.399366">
        <ele>460.130000</ele>
        <time>2009-06-01T08:31:51Z</time>
      </trkpt>
      <trkpt lat="50.654729" lon="6.399435">
        <ele>462.530000</ele>
        <time>2009-06-01T08:32:12Z</time>
      </trkpt>
      <trkpt lat="50.654817" lon="6.399415">
        <ele>464.450000</ele>
        <time>2009-06-01T08:32:35Z</time>
      </trkpt>
      <trkpt lat="50.654693" lon="6.399174">
        <ele>465.420000</ele>
        <time>2009-06-01T08:32:52Z</time>
      </trkpt>
      <trkpt lat="50.654595" lon="6.398718">
        <ele>466.380000</ele>
        <time>2009-06-01T08:33:14Z</time>
      </trkpt>
      <trkpt lat="50.654626" lon="6.398622">
        <ele>467.340000</ele>
        <time>2009-06-01T08:33:20Z</time>
      </trkpt>
      <trkpt lat="50.654745" lon="6.398305">
        <ele>470.220000</ele>
        <time>2009-06-01T08:33:39Z</time>
      </trkpt>
      <trkpt lat="50.654856" lon="6.398066">
        <ele>473.110000</ele>
        <time>2009-06-01T08:33:59Z</time>
      </trkpt>
      <trkpt lat="50.654956" lon="6.397800">
        <ele>475.510000</ele>
        <time>2009-06-01T08:34:18Z</time>
      </trkpt>
      <trkpt lat="50.655128" lon="6.397530">
        <ele>478.870000</ele>
        <time>2009-06-01T08:34:39Z</time>
      </trkpt>
      <trkpt lat="50.655138" lon="6.397515">
        <ele>478.870000</ele>
        <time>2009-06-01T08:34:40Z</time>
      </trkpt>
      <trkpt lat="50.655155" lon="6.397448">
        <ele>479.350000</ele>
        <time>2009-06-01T08:34:45Z</time>
      </trkpt>
      <trkpt lat="50.655346" lon="6.397511">
        <ele>479.840000</ele>
        <time>2009-06-01T08:35:01Z</time>
      </trkpt>
      <trkpt lat="50.655516" lon="6.397639">
        <ele>480.800000</ele>
        <time>2009-06-01T08:35:15Z</time>
      </trkpt>
      <trkpt lat="50.655657" lon="6.397789">
        <ele>482.240000</ele>
        <time>2009-06-01T08:35:29Z</time>
      </trkpt>
      <trkpt lat="50.655703" lon="6.397831">
        <ele>482.240000</ele>
        <time>2009-06-01T08:35:33Z</time>
      </trkpt>
      <trkpt lat="50.655857" lon="6.397970">
        <ele>483.200000</ele>
        <time>2009-06-01T08:35:48Z</time>
      </trkpt>
      <trkpt lat="50.655852" lon="6.398011">
        <ele>483.200000</ele>
        <time>2009-06-01T08:36:05Z</time>
      </trkpt>
      <trkpt lat="50.655980" lon="6.398115">
        <ele>483.680000</ele>
        <time>2009-06-01T08:36:31Z</time>
      </trkpt>
      <trkpt lat="50.656017" lon="6.398150">
        <ele>483.680000</ele>
        <time>2009-06-01T08:36:34Z</time>
      </trkpt>
      <trkpt lat="50.656175" lon="6.398316">
        <ele>484.160000</ele>
        <time>2009-06-01T08:36:49Z</time>
      </trkpt>
      <trkpt lat="50.656168" lon="6.398341">
        <ele>484.160000</ele>
        <time>2009-06-01T08:37:12Z</time>
      </trkpt>
      <trkpt lat="50.656195" lon="6.398359">
        <ele>484.640000</ele>
        <time>2009-06-01T08:37:38Z</time>
      </trkpt>
      <trkpt lat="50.656301" lon="6.398440">
        <ele>484.640000</ele>
        <time>2009-06-01T08:37:57Z</time>
      </trkpt>
      <trkpt lat="50.656474" lon="6.398624">
        <ele>485.120000</ele>
        <time>2009-06-01T08:38:12Z</time>
      </trkpt>
      <trkpt lat="50.656553" lon="6.398740">
        <ele>485.600000</ele>
        <time>2009-06-01T08:38:19Z</time>
      </trkpt>
      <trkpt lat="50.656697" lon="6.398925">
        <ele>485.600000</ele>
        <time>2009-06-01T08:38:33Z</time>
      </trkpt>
      <trkpt lat="50.656845" lon="6.399010">
        <ele>486.080000</ele>
        <time>2009-06-01T08:38:47Z</time>
      </trkpt>
      <trkpt lat="50.656980" lon="6.399205">
        <ele>485.600000</ele>
        <time>2009-06-01T08:39:02Z</time>
      </trkpt>
      <trkpt lat="50.657090" lon="6.399389">
        <ele>485.600000</ele>
        <time>2009-06-01T08:39:14Z</time>
      </trkpt>
      <trkpt lat="50.657212" lon="6.399620">
        <ele>485.600000</ele>
        <time>2009-06-01T08:39:27Z</time>
      </trkpt>
      <trkpt lat="50.657322" lon="6.399838">
        <ele>486.080000</ele>
        <time>2009-06-01T08:39:43Z</time>
      </trkpt>
      <trkpt lat="50.657442" lon="6.400053">
        <ele>486.080000</ele>
        <time>2009-06-01T08:39:56Z</time>
      </trkpt>
      <trkpt lat="50.657585" lon="6.400227">
        <ele>486.080000</ele>
        <time>2009-06-01T08:40:11Z</time>
      </trkpt>
      <trkpt lat="50.657672" lon="6.400332">
        <ele>485.600000</ele>
        <time>2009-06-01T08:40:20Z</time>
      </trkpt>
      <trkpt lat="50.657824" lon="6.400575">
        <ele>485.600000</ele>
        <time>2009-06-01T08:40:35Z</time>
      </trkpt>
      <trkpt lat="50.657965" lon="6.400776">
        <ele>485.120000</ele>
        <time>2009-06-01T08:40:49Z</time>
      </trkpt>
      <trkpt lat="50.658080" lon="6.400899">
        <ele>484.640000</ele>
        <time>2009-06-01T08:41:00Z</time>
      </trkpt>
      <trkpt lat="50.658132" lon="6.400974">
        <ele>484.160000</ele>
        <time>2009-06-01T08:41:06Z</time>
      </trkpt>
      <trkpt lat="50.658231" lon="6.400833">
        <ele>485.120000</ele>
        <time>2009-06-01T08:41:17Z</time>
      </trkpt>
      <trkpt lat="50.658362" lon="6.400644">
        <ele>485.600000</ele>
        <time>2009-06-01T08:41:31Z</time>
      </trkpt>
      <trkpt lat="50.658387" lon="6.400618">
        <ele>485.600000</ele>
        <time>2009-06-01T08:41:33Z</time>
      </trkpt>
      <trkpt lat="50.658428" lon="6.400464">
        <ele>485.600000</ele>
        <time>2009-06-01T08:41:40Z</time>
      </trkpt>
      <trkpt lat="50.658563" lon="6.400226">
        <ele>486.080000</ele>
        <time>2009-06-01T08:41:55Z</time>
      </trkpt>
      <trkpt lat="50.658726" lon="6.400265">
        <ele>485.600000</ele>
        <time>2009-06-01T08:42:08Z</time>
      </trkpt>
      <trkpt lat="50.658842" lon="6.400374">
        <ele>485.120000</ele>
        <time>2009-06-01T08:42:21Z</time>
      </trkpt>
      <trkpt lat="50.659019" lon="6.400521">
        <ele>485.120000</ele>
        <time>2009-06-01T08:42:33Z</time>
      </trkpt>
      <trkpt lat="50.659194" lon="6.400712">
        <ele>483.680000</ele>
        <time>2009-06-01T08:42:51Z</time>
      </trkpt>
      <trkpt lat="50.659313" lon="6.400779">
        <ele>483.200000</ele>
        <time>2009-06-01T08:43:03Z</time>
      </trkpt>
      <trkpt lat="50.659466" lon="6.400902">
        <ele>482.720000</ele>
        <time>2009-06-01T08:43:18Z</time>
      </trkpt>
      <trkpt lat="50.659612" lon="6.401110">
        <ele>481.280000</ele>
        <time>2009-06-01T08:43:31Z</time>
      </trkpt>
      <trkpt lat="50.659777" lon="6.401376">
        <ele>480.320000</ele>
        <time>2009-06-01T08:43:48Z</time>
      </trkpt>
      <trkpt lat="50.659854" lon="6.401532">
        <ele>479.840000</ele>
        <time>2009-06-01T08:43:59Z</time>
      </trkpt>
      <trkpt lat="50.659878" lon="6.401595">
        <ele>478.870000</ele>
        <time>2009-06-01T08:44:03Z</time>
      </trkpt>
      <trkpt lat="50.659984" lon="6.401699">
        <ele>478.390000</ele>
        <time>2009-06-01T08:44:14Z</time>
      </trkpt>
      <trkpt lat="50.660033" lon="6.401735">
        <ele>478.390000</ele>
        <time>2009-06-01T08:44:28Z</time>
      </trkpt>
      <trkpt lat="50.660075" lon="6.401730">
        <ele>477.910000</ele>
        <time>2009-06-01T08:44:34Z</time>
      </trkpt>
      <trkpt lat="50.660116" lon="6.401903">
        <ele>478.390000</ele>
        <time>2009-06-01T08:46:20Z</time>
      </trkpt>
      <trkpt lat="50.660152" lon="6.402008">
        <ele>477.910000</ele>
        <time>2009-06-01T08:46:27Z</time>
      </trkpt>
      <trkpt lat="50.660288" lon="6.402198">
        <ele>475.990000</ele>
        <time>2009-06-01T08:46:43Z</time>
      </trkpt>
      <trkpt lat="50.660408" lon="6.402357">
        <ele>475.510000</ele>
        <time>2009-06-01T08:46:58Z</time>
      </trkpt>
      <trkpt lat="50.660517" lon="6.402523">
        <ele>474.070000</ele>
        <time>2009-06-01T08:47:11Z</time>
      </trkpt>
      <trkpt lat="50.660650" lon="6.402725">
        <ele>472.630000</ele>
        <time>2009-06-01T08:47:25Z</time>
      </trkpt>
      <trkpt lat="50.660664" lon="6.402739">
        <ele>472.630000</ele>
        <time>2009-06-01T08:47:27Z</time>
      </trkpt>
      <trkpt lat="50.660811" lon="6.402943">
        <ele>471.660000</ele>
        <time>2009-06-01T08:47:42Z</time>
      </trkpt>
      <trkpt lat="50.660961" lon="6.403094">
        <ele>470.220000</ele>
        <time>2009-06-01T08:47:56Z</time>
      </trkpt>
      <trkpt lat="50.661089" lon="6.403197">
        <ele>470.220000</ele>
        <time>2009-06-01T08:48:09Z</time>
      </trkpt>
      <trkpt lat="50.661214" lon="6.403235">
        <ele>469.260000</ele>
        <time>2009-06-01T08:48:19Z</time>
      </trkpt>
      <trkpt lat="50.661203" lon="6.403373">
        <ele>469.260000</ele>
        <time>2009-06-01T08:49:54Z</time>
      </trkpt>
      <trkpt lat="50.661295" lon="6.403425">
        <ele>469.260000</ele>
        <time>2009-06-01T08:50:08Z</time>
      </trkpt>
      <trkpt lat="50.661278" lon="6.403394">
        <ele>469.260000</ele>
        <time>2009-06-01T08:50:19Z</time>
      </trkpt>
      <trkpt lat="50.661251" lon="6.403471">
        <ele>469.260000</ele>
        <time>2009-06-01T08:50:24Z</time>
      </trkpt>
      <trkpt lat="50.661224" lon="6.403628">
        <ele>469.260000</ele>
        <time>2009-06-01T08:50:33Z</time>
      </trkpt>
      <trkpt lat="50.661112" lon="6.403808">
        <ele>469.260000</ele>
        <time>2009-06-01T08:50:47Z</time>
      </trkpt>
      <trkpt lat="50.661067" lon="6.403937">
        <ele>469.260000</ele>
        <time>2009-06-01T08:50:54Z</time>
      </trkpt>
      <trkpt lat="50.660982" lon="6.404130">
        <ele>469.260000</ele>
        <time>2009-06-01T08:51:07Z</time>
      </trkpt>
      <trkpt lat="50.660923" lon="6.404456">
        <ele>468.780000</ele>
        <time>2009-06-01T08:51:22Z</time>
      </trkpt>
      <trkpt lat="50.660820" lon="6.404687">
        <ele>468.780000</ele>
        <time>2009-06-01T08:51:35Z</time>
      </trkpt>
      <trkpt lat="50.660795" lon="6.404792">
        <ele>468.780000</ele>
        <time>2009-06-01T08:51:40Z</time>
      </trkpt>
      <trkpt lat="50.660773" lon="6.405115">
        <ele>467.340000</ele>
        <time>2009-06-01T08:51:57Z</time>
      </trkpt>
      <trkpt lat="50.660781" lon="6.405250">
        <ele>467.340000</ele>
        <time>2009-06-01T08:52:03Z</time>
      </trkpt>
      <trkpt lat="50.660829" lon="6.405453">
        <ele>466.380000</ele>
        <time>2009-06-01T08:52:13Z</time>
      </trkpt>
      <trkpt lat="50.660864" lon="6.405598">
        <ele>466.860000</ele>
        <time>2009-06-01T08:52:21Z</time>
      </trkpt>
      <trkpt lat="50.660921" lon="6.405703">
        <ele>466.860000</ele>
        <time>2009-06-01T08:52:27Z</time>
      </trkpt>
      <trkpt lat="50.660992" lon="6.405849">
        <ele>466.380000</ele>
        <time>2009-06-01T08:52:33Z</time>
      </trkpt>
      <trkpt lat="50.661012" lon="6.405878">
        <ele>466.380000</ele>
        <time>2009-06-01T08:52:36Z</time>
      </trkpt>
      <trkpt lat="50.661076" lon="6.406167">
        <ele>465.420000</ele>
        <time>2009-06-01T08:52:53Z</time>
      </trkpt>
      <trkpt lat="50.661129" lon="6.406405">
        <ele>464.930000</ele>
        <time>2009-06-01T08:53:07Z</time>
      </trkpt>
      <trkpt lat="50.661302" lon="6.406671">
        <ele>463.970000</ele>
        <time>2009-06-01T08:53:22Z</time>
      </trkpt>
      <trkpt lat="50.661448" lon="6.406866">
        <ele>463.490000</ele>
        <time>2009-06-01T08:53:35Z</time>
      </trkpt>
      <trkpt lat="50.661590" lon="6.407052">
        <ele>462.530000</ele>
        <time>2009-06-01T08:53:52Z</time>
      </trkpt>
      <trkpt lat="50.661663" lon="6.407143">
        <ele>462.050000</ele>
        <time>2009-06-01T08:54:00Z</time>
      </trkpt>
      <trkpt lat="50.661677" lon="6.407153">
        <ele>462.050000</ele>
        <time>2009-06-01T08:54:02Z</time>
      </trkpt>
      <trkpt lat="50.661774" lon="6.407294">
        <ele>461.090000</ele>
        <time>2009-06-01T08:54:14Z</time>
      </trkpt>
      <trkpt lat="50.661878" lon="6.407453">
        <ele>460.610000</ele>
        <time>2009-06-01T08:54:26Z</time>
      </trkpt>
      <trkpt lat="50.661910" lon="6.407530">
        <ele>460.130000</ele>
        <time>2009-06-01T08:54:32Z</time>
      </trkpt>
      <trkpt lat="50.661977" lon="6.407522">
        <ele>460.130000</ele>
        <time>2009-06-01T08:54:36Z</time>
      </trkpt>
      <trkpt lat="50.662090" lon="6.407290">
        <ele>459.170000</ele>
        <time>2009-06-01T08:54:49Z</time>
      </trkpt>
      <trkpt lat="50.662111" lon="6.407271">
        <ele>459.170000</ele>
        <time>2009-06-01T08:54:51Z</time>
      </trkpt>
      <trkpt lat="50.662106" lon="6.407206">
        <ele>458.690000</ele>
        <time>2009-06-01T08:55:06Z</time>
      </trkpt>
      <trkpt lat="50.662145" lon="6.407140">
        <ele>458.210000</ele>
        <time>2009-06-01T08:55:11Z</time>
      </trkpt>
      <trkpt lat="50.662215" lon="6.407006">
        <ele>456.760000</ele>
        <time>2009-06-01T08:55:21Z</time>
      </trkpt>
      <trkpt lat="50.662283" lon="6.406848">
        <ele>456.280000</ele>
        <time>2009-06-01T08:55:30Z</time>
      </trkpt>
      <trkpt lat="50.662343" lon="6.406752">
        <ele>455.800000</ele>
        <time>2009-06-01T08:55:36Z</time>
      </trkpt>
      <trkpt lat="50.662405" lon="6.406679">
        <ele>455.320000</ele>
        <time>2009-06-01T08:55:42Z</time>
      </trkpt>
      <trkpt lat="50.662535" lon="6.406562">
        <ele>455.800000</ele>
        <time>2009-06-01T08:55:52Z</time>
      </trkpt>
      <trkpt lat="50.662562" lon="6.406485">
        <ele>453.880000</ele>
        <time>2009-06-01T08:55:57Z</time>
      </trkpt>
      <trkpt lat="50.662577" lon="6.406427">
        <ele>454.360000</ele>
        <time>2009-06-01T08:56:03Z</time>
      </trkpt>
      <trkpt lat="50.662622" lon="6.406443">
        <ele>454.360000</ele>
        <time>2009-06-01T08:56:07Z</time>
      </trkpt>
      <trkpt lat="50.662792" lon="6.406631">
        <ele>452.920000</ele>
        <time>2009-06-01T08:56:25Z</time>
      </trkpt>
      <trkpt lat="50.662823" lon="6.406676">
        <ele>451.960000</ele>
        <time>2009-06-01T08:56:29Z</time>
      </trkpt>
      <trkpt lat="50.662912" lon="6.406717">
        <ele>450.520000</ele>
        <time>2009-06-01T08:56:36Z</time>
      </trkpt>
      <trkpt lat="50.663043" lon="6.406841">
        <ele>449.550000</ele>
        <time>2009-06-01T08:56:49Z</time>
      </trkpt>
      <trkpt lat="50.663074" lon="6.406883">
        <ele>447.630000</ele>
        <time>2009-06-01T08:56:53Z</time>
      </trkpt>
      <trkpt lat="50.663178" lon="6.406984">
        <ele>447.630000</ele>
        <time>2009-06-01T08:57:05Z</time>
      </trkpt>
      <trkpt lat="50.663301" lon="6.407189">
        <ele>446.670000</ele>
        <time>2009-06-01T08:57:19Z</time>
      </trkpt>
      <trkpt lat="50.663335" lon="6.407294">
        <ele>446.670000</ele>
        <time>2009-06-01T08:57:25Z</time>
      </trkpt>
      <trkpt lat="50.663357" lon="6.407550">
        <ele>446.190000</ele>
        <time>2009-06-01T08:57:37Z</time>
      </trkpt>
      <trkpt lat="50.663452" lon="6.407824">
        <ele>446.190000</ele>
        <time>2009-06-01T08:57:54Z</time>
      </trkpt>
      <trkpt lat="50.663554" lon="6.408033">
        <ele>445.710000</ele>
        <time>2009-06-01T08:58:09Z</time>
      </trkpt>
      <trkpt lat="50.663710" lon="6.408228">
        <ele>445.230000</ele>
        <time>2009-06-01T08:58:27Z</time>
      </trkpt>
      <trkpt lat="50.663888" lon="6.408448">
        <ele>445.230000</ele>
        <time>2009-06-01T08:58:44Z</time>
      </trkpt>
      <trkpt lat="50.663936" lon="6.408509">
        <ele>445.710000</ele>
        <time>2009-06-01T08:58:49Z</time>
      </trkpt>
      <trkpt lat="50.664008" lon="6.408687">
        <ele>445.230000</ele>
        <time>2009-06-01T08:59:05Z</time>
      </trkpt>
      <trkpt lat="50.664079" lon="6.408813"/>
      <trkpt lat="50.664136" lon="6.408892"/>
      <trkpt lat="50.664199" lon="6.409011"/>
      <trkpt lat="50.664224" lon="6.409061"/>
    </trkseg>
  </trk>

</gpx>
